createdAt,value
2018-05-02T00:00:44.280Z,88.80
2018-05-02T00:01:47.575Z,88.80
2018-05-02T00:02:50.120Z,88.70
2018-05-02T00:03:53.402Z,88.60
2018-05-02T00:04:56.823Z,88.50
2018-05-02T00:05:59.349Z,88.50
2018-05-02T00:07:01.877Z,88.50
2018-05-02T00:08:04.441Z,88.80
2018-05-02T00:09:06.954Z,88.70
2018-05-02T00:10:10.227Z,88.20
2018-05-02T00:11:12.763Z,88.20
2018-05-02T00:12:15.278Z,88.10
2018-05-02T00:13:17.844Z,88.50
2018-05-02T00:14:21.132Z,88.80
2018-05-02T00:15:23.684Z,88.80
2018-05-02T00:16:26.963Z,89.30
2018-05-02T00:17:30.252Z,89.70
2018-05-02T00:18:33.546Z,90.10
2018-05-02T00:19:36.827Z,90.00
2018-05-02T00:20:40.140Z,90.00
2018-05-02T00:21:42.653Z,90.00
2018-05-02T00:22:45.163Z,90.00
2018-05-02T00:23:47.685Z,90.10
2018-05-02T00:24:50.235Z,90.10
2018-05-02T00:25:52.752Z,90.10
2018-05-02T00:26:55.281Z,90.10
2018-05-02T00:27:57.842Z,90.10
2018-05-02T00:29:00.400Z,90.20
2018-05-02T00:30:02.918Z,90.10
2018-05-02T00:31:05.426Z,90.10
2018-05-02T00:32:07.943Z,90.20
2018-05-02T00:33:11.225Z,90.00
2018-05-02T00:34:14.556Z,90.10
2018-05-02T00:35:17.071Z,90.10
2018-05-02T00:36:20.343Z,90.20
2018-05-02T00:37:23.636Z,90.50
2018-05-02T00:38:26.931Z,90.30
2018-05-02T00:39:29.490Z,90.30
2018-05-02T00:40:32.802Z,90.40
2018-05-02T00:41:35.319Z,90.40
2018-05-02T00:42:37.841Z,90.50
2018-05-02T00:43:40.369Z,90.60
2018-05-02T00:44:43.659Z,90.60
2018-05-02T00:45:46.975Z,90.40
2018-05-02T00:46:49.500Z,90.40
2018-05-02T00:47:52.779Z,90.90
2018-05-02T00:49:07.885Z,90.70
2018-05-02T00:50:10.415Z,90.70
2018-05-02T00:51:13.706Z,90.80
2018-05-02T00:52:16.247Z,90.80
2018-05-02T00:53:18.760Z,90.80
2018-05-02T00:54:21.315Z,90.90
2018-05-02T00:55:23.840Z,91.00
2018-05-02T00:56:26.365Z,91.00
2018-05-02T00:57:28.900Z,91.20
2018-05-02T00:58:31.420Z,91.10
2018-05-02T00:59:33.970Z,91.20
2018-05-02T01:00:36.482Z,91.30
2018-05-02T01:01:39.811Z,91.30
2018-05-02T01:02:42.328Z,91.20
2018-05-02T01:03:45.625Z,91.40
2018-05-02T01:04:48.169Z,91.40
2018-05-02T01:05:50.686Z,91.30
2018-05-02T01:06:53.247Z,91.50
2018-05-02T01:07:55.766Z,91.90
2018-05-02T01:08:58.299Z,91.90
2018-05-02T01:10:00.866Z,91.90
2018-05-02T01:11:03.389Z,91.90
2018-05-02T01:12:06.679Z,92.00
2018-05-02T01:13:09.958Z,92.10
2018-05-02T01:14:13.248Z,92.00
2018-05-02T01:15:15.793Z,92.00
2018-05-02T01:16:19.071Z,92.00
2018-05-02T01:17:21.592Z,92.00
2018-05-02T01:18:24.116Z,92.10
2018-05-02T01:19:27.406Z,91.90
2018-05-02T01:20:30.738Z,92.00
2018-05-02T01:21:33.287Z,92.00
2018-05-02T01:22:35.811Z,92.00
2018-05-02T01:23:38.324Z,92.00
2018-05-02T01:24:40.852Z,92.00
2018-05-02T01:25:44.179Z,92.00
2018-05-02T01:26:46.704Z,92.00
2018-05-02T01:27:49.990Z,92.20
2018-05-02T01:28:52.512Z,92.20
2018-05-02T01:29:55.034Z,92.20
2018-05-02T01:30:57.602Z,92.10
2018-05-02T01:32:00.119Z,92.20
2018-05-02T01:33:02.632Z,92.10
2018-05-02T01:34:05.152Z,92.00
2018-05-02T01:35:07.668Z,92.00
2018-05-02T01:36:10.311Z,92.00
2018-05-02T01:37:13.592Z,91.90
2018-05-02T01:38:16.879Z,92.00
2018-05-02T01:39:20.175Z,92.10
2018-05-02T01:40:23.459Z,92.30
2018-05-02T01:41:26.768Z,92.40
2018-05-02T01:42:29.292Z,92.40
2018-05-02T01:43:31.806Z,92.60
2018-05-02T01:44:34.321Z,92.50
2018-05-02T01:45:36.867Z,92.40
2018-05-02T01:46:39.390Z,92.50
2018-05-02T01:47:41.908Z,92.90
2018-05-02T01:48:56.232Z,93.00
2018-05-02T01:49:58.765Z,92.90
2018-05-02T01:51:01.316Z,92.70
2018-05-02T01:52:03.849Z,92.90
2018-05-02T01:53:06.399Z,93.20
2018-05-02T01:54:08.930Z,93.30
2018-05-02T01:55:11.473Z,93.30
2018-05-02T01:56:14.755Z,93.20
2018-05-02T01:57:18.041Z,93.00
2018-05-02T01:58:21.354Z,92.90
2018-05-02T01:59:23.868Z,92.80
2018-05-02T02:00:26.393Z,92.70
2018-05-02T02:01:28.952Z,92.50
2018-05-02T02:02:31.500Z,92.70
2018-05-02T02:03:34.058Z,92.60
2018-05-02T02:04:37.336Z,92.60
2018-05-02T02:05:40.621Z,92.70
2018-05-02T02:06:43.920Z,92.70
2018-05-02T02:07:46.485Z,92.70
2018-05-02T02:08:49.054Z,92.70
2018-05-02T02:09:51.575Z,92.60
2018-05-02T02:10:54.137Z,92.60
2018-05-02T02:11:56.661Z,92.70
2018-05-02T02:12:59.221Z,92.60
2018-05-02T02:14:01.747Z,92.70
2018-05-02T02:15:04.263Z,92.70
2018-05-02T02:16:06.781Z,92.60
2018-05-02T02:17:09.300Z,92.70
2018-05-02T02:18:11.845Z,92.70
2018-05-02T02:19:14.390Z,92.60
2018-05-02T02:20:17.675Z,92.30
2018-05-02T02:21:20.954Z,92.30
2018-05-02T02:22:23.469Z,92.30
2018-05-02T02:23:25.977Z,92.40
2018-05-02T02:24:28.563Z,92.60
2018-05-02T02:25:31.861Z,93.00
2018-05-02T02:26:34.378Z,93.00
2018-05-02T02:27:36.905Z,92.80
2018-05-02T02:28:39.430Z,92.70
2018-05-02T02:29:41.998Z,92.70
2018-05-02T02:30:44.523Z,92.50
2018-05-02T02:31:47.813Z,93.00
2018-05-02T02:32:50.338Z,93.00
2018-05-02T02:33:52.854Z,93.00
2018-05-02T02:34:55.401Z,92.90
2018-05-02T02:35:57.970Z,92.90
2018-05-02T02:37:00.494Z,92.80
2018-05-02T02:38:03.776Z,92.90
2018-05-02T02:39:07.060Z,93.20
2018-05-02T02:40:10.392Z,93.40
2018-05-02T02:41:12.942Z,93.40
2018-05-02T02:42:15.451Z,93.30
2018-05-02T02:43:17.985Z,93.50
2018-05-02T02:44:20.505Z,93.40
2018-05-02T02:45:23.792Z,93.30
2018-05-02T02:46:27.108Z,93.60
2018-05-02T02:47:29.630Z,93.30
2018-05-02T02:48:32.919Z,93.20
2018-05-02T02:49:36.214Z,93.20
2018-05-02T02:50:39.501Z,93.20
2018-05-02T02:51:42.823Z,93.30
2018-05-02T02:52:45.344Z,93.30
2018-05-02T02:53:48.626Z,93.40
2018-05-02T02:54:51.915Z,93.40
2018-05-02T02:55:55.232Z,93.30
2018-05-02T02:56:57.796Z,93.30
2018-05-02T02:58:00.308Z,93.40
2018-05-02T02:59:02.836Z,93.30
2018-05-02T03:00:05.372Z,93.40
2018-05-02T03:01:07.904Z,93.40
2018-05-02T03:02:10.455Z,93.40
2018-05-02T03:03:12.967Z,93.30
2018-05-02T03:04:16.243Z,93.40
2018-05-02T03:05:19.538Z,93.20
2018-05-02T03:06:22.060Z,93.20
2018-05-02T03:07:24.613Z,93.30
2018-05-02T03:08:27.147Z,93.40
2018-05-02T03:09:29.660Z,93.30
2018-05-02T03:10:32.208Z,93.30
2018-05-02T03:11:34.726Z,93.40
2018-05-02T03:12:38.049Z,93.50
2018-05-02T03:13:40.567Z,93.50
2018-05-02T03:14:43.889Z,93.60
2018-05-02T03:15:46.400Z,93.70
2018-05-02T03:16:48.915Z,93.70
2018-05-02T03:17:51.436Z,93.70
2018-05-02T03:18:54.014Z,93.80
2018-05-02T03:19:57.297Z,93.90
2018-05-02T03:21:00.584Z,93.90
2018-05-02T03:22:03.875Z,94.10
2018-05-02T03:23:07.167Z,94.10
2018-05-02T03:24:09.725Z,94.10
2018-05-02T03:25:13.021Z,94.30
2018-05-02T03:26:15.536Z,94.20
2018-05-02T03:27:18.061Z,94.30
2018-05-02T03:28:20.576Z,94.50
2018-05-02T03:29:23.119Z,94.60
2018-05-02T03:30:25.630Z,94.70
2018-05-02T03:31:28.950Z,94.60
2018-05-02T03:32:31.471Z,94.60
2018-05-02T03:33:33.988Z,94.50
2018-05-02T03:34:36.511Z,94.50
2018-05-02T03:35:39.787Z,94.20
2018-05-02T03:36:42.340Z,94.20
2018-05-02T03:37:44.860Z,94.70
2018-05-02T03:38:47.395Z,94.30
2018-05-02T03:39:50.678Z,94.20
2018-05-02T03:40:53.963Z,94.30
2018-05-02T03:41:57.301Z,94.20
2018-05-02T03:42:59.816Z,94.20
2018-05-02T03:44:03.097Z,94.20
2018-05-02T03:45:06.383Z,94.30
2018-05-02T03:46:09.667Z,94.30
2018-05-02T03:47:12.984Z,94.30
2018-05-02T03:48:15.508Z,94.30
2018-05-02T03:49:18.786Z,94.50
2018-05-02T03:50:21.359Z,94.50
2018-05-02T03:51:24.640Z,94.30
2018-05-02T03:52:27.160Z,94.30
2018-05-02T03:53:29.703Z,94.30
2018-05-02T03:54:32.230Z,94.20
2018-05-02T03:55:34.793Z,94.50
2018-05-02T03:56:37.316Z,94.10
2018-05-02T03:57:39.842Z,94.10
2018-05-02T03:58:43.131Z,94.20
2018-05-02T03:59:58.346Z,94.30
2018-05-02T04:01:12.827Z,94.30
2018-05-02T04:02:27.936Z,94.80
2018-05-02T04:03:42.287Z,94.70
2018-05-02T04:04:56.641Z,94.60
2018-05-02T04:06:11.011Z,94.60
2018-05-02T04:07:14.225Z,94.60
2018-05-02T04:08:16.753Z,94.60
2018-05-02T04:09:19.272Z,94.60
2018-05-02T04:10:21.828Z,94.60
2018-05-02T04:11:24.406Z,94.60
2018-05-02T04:12:26.933Z,94.60
2018-05-02T04:13:29.456Z,94.50
2018-05-02T04:14:31.985Z,94.60
2018-05-02T04:15:34.549Z,94.60
2018-05-02T04:16:37.845Z,94.20
2018-05-02T04:17:40.369Z,94.20
2018-05-02T04:18:42.895Z,94.40
2018-05-02T04:19:45.427Z,94.90
2018-05-02T04:20:48.761Z,95.00
2018-05-02T04:21:51.279Z,95.00
2018-05-02T04:22:54.605Z,94.90
2018-05-02T04:23:57.135Z,94.90
2018-05-02T04:24:59.655Z,94.90
2018-05-02T04:26:02.245Z,95.10
2018-05-02T04:27:04.701Z,95.10
2018-05-02T04:28:07.251Z,95.10
2018-05-02T04:29:10.547Z,95.20
2018-05-02T04:30:13.104Z,95.50
2018-05-02T04:31:15.624Z,95.20
2018-05-02T04:32:18.147Z,95.20
2018-05-02T04:33:20.659Z,95.30
2018-05-02T04:34:23.185Z,95.00
2018-05-02T04:35:25.752Z,94.90
2018-05-02T04:36:28.311Z,94.90
2018-05-02T04:37:30.838Z,95.00
2018-05-02T04:38:33.363Z,95.10
2018-05-02T04:39:36.656Z,95.10
2018-05-02T04:40:39.980Z,95.10
2018-05-02T04:41:42.514Z,95.10
2018-05-02T04:42:45.029Z,95.00
2018-05-02T04:43:47.552Z,94.90
2018-05-02T04:44:50.072Z,94.90
2018-05-02T04:45:52.629Z,94.90
2018-05-02T04:46:55.161Z,94.60
2018-05-02T04:47:57.684Z,94.50
2018-05-02T04:49:00.212Z,94.60
2018-05-02T04:50:02.732Z,94.50
2018-05-02T04:51:06.077Z,94.50
2018-05-02T04:52:08.612Z,94.60
2018-05-02T04:53:11.180Z,94.70
2018-05-02T04:54:13.695Z,94.70
2018-05-02T04:55:16.248Z,94.70
2018-05-02T04:56:18.768Z,94.80
2018-05-02T04:57:21.287Z,94.60
2018-05-02T04:58:23.800Z,94.70
2018-05-02T04:59:26.371Z,94.60
2018-05-02T05:00:28.923Z,94.60
2018-05-02T05:01:31.440Z,94.30
2018-05-02T05:02:33.968Z,94.30
2018-05-02T05:03:36.501Z,94.30
2018-05-02T05:04:39.841Z,94.20
2018-05-02T05:05:42.358Z,94.20
2018-05-02T05:06:45.636Z,93.90
2018-05-02T05:07:48.915Z,93.90
2018-05-02T05:08:52.205Z,93.90
2018-05-02T05:09:55.523Z,94.00
2018-05-02T05:10:58.034Z,94.00
2018-05-02T05:12:00.547Z,93.90
2018-05-02T05:13:03.104Z,94.20
2018-05-02T05:14:05.619Z,94.10
2018-05-02T05:15:08.142Z,94.00
2018-05-02T05:16:10.656Z,93.90
2018-05-02T05:17:13.184Z,93.90
2018-05-02T05:18:15.742Z,94.10
2018-05-02T05:19:18.269Z,94.10
2018-05-02T05:20:20.800Z,94.20
2018-05-02T05:21:23.320Z,94.20
2018-05-02T05:22:26.598Z,93.90
2018-05-02T05:23:30.886Z,93.90
2018-05-02T05:24:33.420Z,93.90
2018-05-02T05:25:35.945Z,93.80
2018-05-02T05:26:39.233Z,93.90
2018-05-02T05:27:42.552Z,93.70
2018-05-02T05:28:45.123Z,93.70
2018-05-02T05:29:47.645Z,93.50
2018-05-02T05:30:50.937Z,93.30
2018-05-02T05:31:53.475Z,93.40
2018-05-02T05:32:56.004Z,93.40
2018-05-02T05:33:58.564Z,93.50
2018-05-02T05:35:01.085Z,93.60
2018-05-02T05:36:04.375Z,93.50
2018-05-02T05:37:07.655Z,93.40
2018-05-02T05:38:10.975Z,93.10
2018-05-02T05:39:13.491Z,93.10
2018-05-02T05:40:16.033Z,93.20
2018-05-02T05:41:19.313Z,93.40
2018-05-02T05:42:21.830Z,93.40
2018-05-02T05:43:25.157Z,93.50
2018-05-02T05:44:27.690Z,93.40
2018-05-02T05:45:30.263Z,93.70
2018-05-02T05:46:32.800Z,93.90
2018-05-02T05:47:36.123Z,93.90
2018-05-02T05:48:38.639Z,93.90
2018-05-02T05:49:41.168Z,93.90
2018-05-02T05:50:43.690Z,94.20
2018-05-02T05:51:47.024Z,94.60
2018-05-02T05:52:49.539Z,94.60
2018-05-02T05:53:52.889Z,94.60
2018-05-02T05:54:55.413Z,94.60
2018-05-02T05:55:57.931Z,94.40
2018-05-02T05:57:00.480Z,94.60
2018-05-02T05:58:02.995Z,94.70
2018-05-02T05:59:06.333Z,95.00
2018-05-02T06:00:08.848Z,95.00
2018-05-02T06:01:12.142Z,95.00
2018-05-02T06:02:14.752Z,94.90
2018-05-02T06:03:17.276Z,94.50
2018-05-02T06:04:19.799Z,94.20
2018-05-02T06:05:22.313Z,94.30
2018-05-02T06:06:24.832Z,94.30
2018-05-02T06:07:27.394Z,94.10
2018-05-02T06:08:29.925Z,93.80
2018-05-02T06:09:32.446Z,93.80
2018-05-02T06:10:35.728Z,93.90
2018-05-02T06:11:39.007Z,93.90
2018-05-02T06:12:41.634Z,93.90
2018-05-02T06:13:44.090Z,94.10
2018-05-02T06:14:46.606Z,93.90
2018-05-02T06:15:49.120Z,94.10
2018-05-02T06:16:51.672Z,94.10
2018-05-02T06:17:54.191Z,94.20
2018-05-02T06:18:56.707Z,94.00
2018-05-02T06:19:59.219Z,94.20
2018-05-02T06:21:01.747Z,94.40
2018-05-02T06:22:04.315Z,94.40
2018-05-02T06:23:07.675Z,94.50
2018-05-02T06:24:10.224Z,94.60
2018-05-02T06:25:13.508Z,94.20
2018-05-02T06:26:16.833Z,94.20
2018-05-02T06:27:19.456Z,94.20
2018-05-02T06:28:22.013Z,94.30
2018-05-02T06:29:24.546Z,94.20
2018-05-02T06:30:27.068Z,93.90
2018-05-02T06:31:30.347Z,93.80
2018-05-02T06:32:33.649Z,93.40
2018-05-02T06:33:36.205Z,93.40
2018-05-02T06:34:39.493Z,93.20
2018-05-02T06:35:42.812Z,93.20
2018-05-02T06:36:45.341Z,93.20
2018-05-02T06:37:48.067Z,93.40
2018-05-02T06:38:50.616Z,93.40
2018-05-02T06:39:53.142Z,93.20
2018-05-02T06:40:56.436Z,93.10
2018-05-02T06:41:58.962Z,93.10
2018-05-02T06:43:01.526Z,92.90
2018-05-02T06:44:04.088Z,92.70
2018-05-02T06:45:06.610Z,92.80
2018-05-02T06:46:09.141Z,92.80
2018-05-02T06:47:11.675Z,92.90
2018-05-02T06:48:14.214Z,92.90
2018-05-02T06:49:16.876Z,92.60
2018-05-02T06:50:19.330Z,92.60
2018-05-02T06:51:22.615Z,93.10
2018-05-02T06:52:25.129Z,93.10
2018-05-02T06:53:27.645Z,93.20
2018-05-02T06:54:30.196Z,93.20
2018-05-02T06:55:33.488Z,93.10
2018-05-02T06:56:36.807Z,92.50
2018-05-02T06:57:39.334Z,92.50
2018-05-02T06:58:42.624Z,92.30
2018-05-02T06:59:45.913Z,92.50
2018-05-02T07:00:48.460Z,92.50
2018-05-02T07:01:51.062Z,92.40
2018-05-02T07:02:53.583Z,92.20
2018-05-02T07:03:56.888Z,92.80
2018-05-02T07:05:00.176Z,92.80
2018-05-02T07:06:02.705Z,92.70
2018-05-02T07:07:05.315Z,91.80
2018-05-02T07:08:08.586Z,92.00
2018-05-02T07:09:11.869Z,92.10
2018-05-02T07:10:15.155Z,91.50
2018-05-02T07:11:18.436Z,91.20
2018-05-02T07:12:21.760Z,91.20
2018-05-02T07:13:24.309Z,91.20
2018-05-02T07:14:26.846Z,90.80
2018-05-02T07:15:30.133Z,91.30
2018-05-02T07:16:33.476Z,91.40
2018-05-02T07:17:36.003Z,91.40
2018-05-02T07:18:38.533Z,91.50
2018-05-02T07:19:41.046Z,91.40
2018-05-02T07:20:43.564Z,91.30
2018-05-02T07:21:46.120Z,90.90
2018-05-02T07:22:48.648Z,90.80
2018-05-02T07:23:51.204Z,90.70
2018-05-02T07:24:53.768Z,90.90
2018-05-02T07:25:56.288Z,91.10
2018-05-02T07:26:58.811Z,91.10
2018-05-02T07:28:01.372Z,90.70
2018-05-02T07:29:03.893Z,90.20
2018-05-02T07:30:06.425Z,90.30
2018-05-02T07:31:08.950Z,88.50
2018-05-02T07:32:12.229Z,88.30
2018-05-02T07:33:15.547Z,88.30
2018-05-02T07:34:18.073Z,88.30
2018-05-02T07:35:21.369Z,88.80
2018-05-02T07:36:24.648Z,89.10
2018-05-02T07:37:27.941Z,88.70
2018-05-02T07:38:30.507Z,88.70
2018-05-02T07:39:33.030Z,87.60
2018-05-02T07:40:35.589Z,86.90
2018-05-02T07:41:38.108Z,86.90
2018-05-02T07:42:40.640Z,87.30
2018-05-02T07:43:43.152Z,87.70
2018-05-02T07:44:45.675Z,87.50
2018-05-02T07:45:48.230Z,87.40
2018-05-02T07:46:50.741Z,87.10
2018-05-02T07:47:53.258Z,86.70
2018-05-02T07:48:55.816Z,86.50
2018-05-02T07:49:58.336Z,86.90
2018-05-02T07:51:00.861Z,86.60
2018-05-02T07:52:03.416Z,86.50
2018-05-02T07:53:05.944Z,86.10
2018-05-02T07:54:08.461Z,86.20
2018-05-02T07:55:10.986Z,86.40
2018-05-02T07:56:13.536Z,86.90
2018-05-02T07:57:16.061Z,86.50
2018-05-02T07:58:18.580Z,85.80
2018-05-02T07:59:21.146Z,85.70
2018-05-02T08:00:23.676Z,85.50
2018-05-02T08:01:26.964Z,87.60
2018-05-02T08:02:30.284Z,86.30
2018-05-02T08:03:32.803Z,86.20
2018-05-02T08:04:35.319Z,84.90
2018-05-02T08:05:37.851Z,84.40
2018-05-02T08:06:41.131Z,84.30
2018-05-02T08:07:44.465Z,83.90
2018-05-02T08:08:46.987Z,83.70
2018-05-02T08:09:50.296Z,84.00
2018-05-02T08:10:52.820Z,84.00
2018-05-02T08:11:55.351Z,84.00
2018-05-02T08:12:57.929Z,84.90
2018-05-02T08:14:00.445Z,84.40
2018-05-02T08:15:03.027Z,83.80
2018-05-02T08:16:05.551Z,84.10
2018-05-02T08:17:08.166Z,84.20
2018-05-02T08:18:10.729Z,83.60
2018-05-02T08:19:13.243Z,83.20
2018-05-02T08:20:15.769Z,82.10
2018-05-02T08:21:18.301Z,83.30
2018-05-02T08:22:21.635Z,82.70
2018-05-02T08:23:24.163Z,82.70
2018-05-02T08:24:26.688Z,83.70
2018-05-02T08:25:29.215Z,82.50
2018-05-02T08:26:31.739Z,82.00
2018-05-02T08:27:35.099Z,79.70
2018-05-02T08:28:37.636Z,79.70
2018-05-02T08:29:40.170Z,79.80
2018-05-02T08:30:43.460Z,80.80
2018-05-02T08:31:45.992Z,80.70
2018-05-02T08:32:48.625Z,81.50
2018-05-02T08:33:51.176Z,80.40
2018-05-02T08:34:53.723Z,81.40
2018-05-02T08:35:57.011Z,80.70
2018-05-02T08:36:59.540Z,80.60
2018-05-02T08:38:02.068Z,80.80
2018-05-02T08:39:04.626Z,79.80
2018-05-02T08:40:07.216Z,78.40
2018-05-02T08:41:09.752Z,78.20
2018-05-02T08:42:12.273Z,78.30
2018-05-02T08:43:14.814Z,78.00
2018-05-02T08:44:17.396Z,79.60
2018-05-02T08:45:19.920Z,79.10
2018-05-02T08:46:22.499Z,79.30
2018-05-02T08:47:25.043Z,77.20
2018-05-02T08:48:27.569Z,76.80
2018-05-02T08:49:30.145Z,76.80
2018-05-02T08:50:32.672Z,76.30
2018-05-02T08:51:35.218Z,77.00
2018-05-02T08:52:37.757Z,77.30
2018-05-02T08:53:41.049Z,76.40
2018-05-02T08:54:44.383Z,76.40
2018-05-02T08:55:46.923Z,76.40
2018-05-02T08:56:49.443Z,75.90
2018-05-02T08:57:51.978Z,75.70
2018-05-02T08:58:54.504Z,75.80
2018-05-02T08:59:57.073Z,76.00
2018-05-02T09:00:59.613Z,76.40
2018-05-02T09:02:02.188Z,77.00
2018-05-02T09:03:04.712Z,76.90
2018-05-02T09:04:07.232Z,76.20
2018-05-02T09:05:10.519Z,75.90
2018-05-02T09:06:13.045Z,75.20
2018-05-02T09:07:15.640Z,75.40
2018-05-02T09:08:18.943Z,74.10
2018-05-02T09:09:21.477Z,74.10
2018-05-02T09:10:23.992Z,73.40
2018-05-02T09:11:26.520Z,72.70
2018-05-02T09:12:29.217Z,72.80
2018-05-02T09:13:31.787Z,72.30
2018-05-02T09:14:34.329Z,72.60
2018-05-02T09:15:37.697Z,73.00
2018-05-02T09:16:40.193Z,73.00
2018-05-02T09:17:42.758Z,72.70
2018-05-02T09:18:45.292Z,72.50
2018-05-02T09:19:47.836Z,72.80
2018-05-02T09:20:50.369Z,72.60
2018-05-02T09:21:52.888Z,72.20
2018-05-02T09:22:55.504Z,70.70
2018-05-02T09:23:58.024Z,69.80
2018-05-02T09:25:00.552Z,68.40
2018-05-02T09:26:03.071Z,69.20
2018-05-02T09:27:05.610Z,69.00
2018-05-02T09:28:08.159Z,69.40
2018-05-02T09:29:11.446Z,67.40
2018-05-02T09:30:14.005Z,67.40
2018-05-02T09:31:16.523Z,66.20
2018-05-02T09:32:19.812Z,66.00
2018-05-02T09:33:23.098Z,65.60
2018-05-02T09:34:25.620Z,65.50
2018-05-02T09:35:28.176Z,65.60
2018-05-02T09:36:30.695Z,65.30
2018-05-02T09:37:33.989Z,68.40
2018-05-02T09:38:36.530Z,68.40
2018-05-02T09:39:39.866Z,65.80
2018-05-02T09:40:42.399Z,65.80
2018-05-02T09:41:44.977Z,65.70
2018-05-02T09:42:47.515Z,67.50
2018-05-02T09:43:50.809Z,66.40
2018-05-02T09:44:54.113Z,66.60
2018-05-02T09:45:56.642Z,66.50
2018-05-02T09:46:59.205Z,65.80
2018-05-02T09:48:01.732Z,67.00
2018-05-02T09:49:04.283Z,65.40
2018-05-02T09:50:06.812Z,65.20
2018-05-02T09:51:10.111Z,65.70
2018-05-02T09:52:13.433Z,65.50
2018-05-02T09:53:15.952Z,65.50
2018-05-02T09:54:19.243Z,66.30
2018-05-02T09:55:22.612Z,66.10
2018-05-02T09:56:25.139Z,66.10
2018-05-02T09:57:27.700Z,64.60
2018-05-02T09:58:30.214Z,64.40
2018-05-02T09:59:33.540Z,66.00
2018-05-02T10:00:36.093Z,66.00
2018-05-02T10:01:38.656Z,65.40
2018-05-02T10:02:41.189Z,64.10
2018-05-02T10:03:43.709Z,64.50
2018-05-02T10:04:46.238Z,64.80
2018-05-02T10:05:48.773Z,64.90
2018-05-02T10:06:51.336Z,65.30
2018-05-02T10:07:53.866Z,63.30
2018-05-02T10:08:56.392Z,64.30
2018-05-02T10:09:58.911Z,63.90
2018-05-02T10:11:01.436Z,62.70
2018-05-02T10:12:04.770Z,63.80
2018-05-02T10:13:07.293Z,63.80
2018-05-02T10:14:09.819Z,64.80
2018-05-02T10:15:12.346Z,63.80
2018-05-02T10:16:14.868Z,62.80
2018-05-02T10:17:18.248Z,61.50
2018-05-02T10:18:20.801Z,60.60
2018-05-02T10:19:23.344Z,60.90
2018-05-02T10:20:25.899Z,61.60
2018-05-02T10:21:28.422Z,59.80
2018-05-02T10:22:30.945Z,60.90
2018-05-02T10:23:33.499Z,59.60
2018-05-02T10:24:36.045Z,60.20
2018-05-02T10:25:38.563Z,59.40
2018-05-02T10:26:41.090Z,60.50
2018-05-02T10:27:43.604Z,61.00
2018-05-02T10:28:46.172Z,60.80
2018-05-02T10:29:48.693Z,60.00
2018-05-02T10:30:51.244Z,61.10
2018-05-02T10:31:53.766Z,60.60
2018-05-02T10:32:56.288Z,58.80
2018-05-02T10:33:58.917Z,60.60
2018-05-02T10:35:01.412Z,59.90
2018-05-02T10:36:03.927Z,59.80
2018-05-02T10:37:06.457Z,58.80
2018-05-02T10:38:08.972Z,58.50
2018-05-02T10:39:11.535Z,60.10
2018-05-02T10:40:14.066Z,58.40
2018-05-02T10:41:16.620Z,59.00
2018-05-02T10:42:19.143Z,59.20
2018-05-02T10:43:22.424Z,58.40
2018-05-02T10:44:24.983Z,58.40
2018-05-02T10:45:27.499Z,59.20
2018-05-02T10:46:30.073Z,58.20
2018-05-02T10:47:32.597Z,58.10
2018-05-02T10:48:35.128Z,58.60
2018-05-02T10:49:37.668Z,59.40
2018-05-02T10:50:40.190Z,59.30
2018-05-02T10:51:42.749Z,58.70
2018-05-02T10:52:45.262Z,59.10
2018-05-02T10:53:47.783Z,59.40
2018-05-02T10:54:50.313Z,58.40
2018-05-02T10:55:52.863Z,57.20
2018-05-02T10:56:55.427Z,58.10
2018-05-02T10:57:57.950Z,57.90
2018-05-02T10:59:01.253Z,58.10
2018-05-02T11:00:04.532Z,57.50
2018-05-02T11:01:07.835Z,57.30
2018-05-02T11:03:19.424Z,58.20
2018-05-02T11:04:21.949Z,58.40
2018-05-02T11:05:24.468Z,57.70
2018-05-02T11:06:27.025Z,57.70
2018-05-02T11:07:29.560Z,57.10
2018-05-02T11:08:32.852Z,57.20
2018-05-02T11:09:36.145Z,56.40
2018-05-02T11:10:38.687Z,56.40
2018-05-02T11:11:41.254Z,58.00
2018-05-02T11:12:43.771Z,57.40
2018-05-02T11:13:46.289Z,56.10
2018-05-02T11:14:49.576Z,56.30
2018-05-02T11:15:52.860Z,55.40
2018-05-02T11:16:56.194Z,56.10
2018-05-02T11:17:58.725Z,56.10
2018-05-02T11:19:01.252Z,55.10
2018-05-02T11:20:03.763Z,56.30
2018-05-02T11:21:06.280Z,56.30
2018-05-02T11:22:08.836Z,56.50
2018-05-02T11:23:11.359Z,57.10
2018-05-02T11:24:13.885Z,56.40
2018-05-02T11:25:16.402Z,56.60
2018-05-02T11:26:18.927Z,57.00
2018-05-02T11:27:21.485Z,54.20
2018-05-02T11:28:24.068Z,53.60
2018-05-02T11:29:26.559Z,55.40
2018-05-02T11:30:29.079Z,55.30
2018-05-02T11:31:31.610Z,54.70
2018-05-02T11:32:34.190Z,54.90
2018-05-02T11:33:36.748Z,54.40
2018-05-02T11:34:39.269Z,55.20
2018-05-02T11:35:41.811Z,54.70
2018-05-02T11:36:44.329Z,55.80
2018-05-02T11:37:46.871Z,56.00
2018-05-02T11:38:50.230Z,55.60
2018-05-02T11:39:52.752Z,55.50
2018-05-02T11:40:55.278Z,54.40
2018-05-02T11:41:57.791Z,56.00
2018-05-02T11:43:00.395Z,56.50
2018-05-02T11:44:02.898Z,56.50
2018-05-02T11:45:05.449Z,57.50
2018-05-02T11:46:08.742Z,54.30
2018-05-02T11:47:12.068Z,55.10
2018-05-02T11:48:14.583Z,55.00
2018-05-02T11:49:17.904Z,55.50
2018-05-02T11:50:20.431Z,55.50
2018-05-02T11:51:23.758Z,54.50
2018-05-02T11:52:26.284Z,54.50
2018-05-02T11:53:29.569Z,56.10
2018-05-02T11:54:32.872Z,55.10
2018-05-02T11:55:35.429Z,55.10
2018-05-02T11:56:38.721Z,55.60
2018-05-02T11:57:41.303Z,55.50
2018-05-02T11:58:43.831Z,55.00
2018-05-02T11:59:47.144Z,56.30
2018-05-02T12:00:49.713Z,56.30
2018-05-02T12:01:52.241Z,55.30
2018-05-02T12:02:55.666Z,54.80
2018-05-02T12:03:58.205Z,54.90
2018-05-02T12:05:01.490Z,57.30
2018-05-02T12:06:04.827Z,57.00
2018-05-02T12:07:07.356Z,56.90
2018-05-02T12:08:09.890Z,55.80
2018-05-02T12:09:12.423Z,55.30
2018-05-02T12:10:14.944Z,55.70
2018-05-02T12:11:18.267Z,56.20
2018-05-02T12:12:20.791Z,56.10
2018-05-02T12:13:23.325Z,57.40
2018-05-02T12:14:25.845Z,58.70
2018-05-02T12:15:28.367Z,58.20
2018-05-02T12:16:30.920Z,57.50
2018-05-02T12:17:33.451Z,58.00
2018-05-02T12:18:35.975Z,56.80
2018-05-02T12:19:38.513Z,56.90
2018-05-02T12:20:41.037Z,58.30
2018-05-02T12:21:43.634Z,58.70
2018-05-02T12:22:46.163Z,58.50
2018-05-02T12:23:48.680Z,58.50
2018-05-02T12:24:51.199Z,57.70
2018-05-02T12:25:53.739Z,57.10
2018-05-02T12:26:57.055Z,58.50
2018-05-02T12:27:59.618Z,58.00
2018-05-02T12:29:02.180Z,56.70
2018-05-02T12:30:04.712Z,57.60
2018-05-02T12:31:07.239Z,57.90
2018-05-02T12:32:09.755Z,57.80
2018-05-02T12:33:13.059Z,58.80
2018-05-02T12:34:15.629Z,58.20
2018-05-02T12:35:18.167Z,58.10
2018-05-02T12:36:20.684Z,57.80
2018-05-02T12:37:23.214Z,57.20
2018-05-02T12:38:26.511Z,57.30
2018-05-02T12:39:29.100Z,57.10
2018-05-02T12:40:31.640Z,59.00
2018-05-02T12:41:34.180Z,56.90
2018-05-02T12:42:36.711Z,56.40
2018-05-02T12:43:39.281Z,56.70
2018-05-02T12:44:41.804Z,56.20
2018-05-02T12:45:45.096Z,56.00
2018-05-02T12:46:47.716Z,56.00
2018-05-02T12:47:50.928Z,56.60
2018-05-02T12:48:54.258Z,56.80
2018-05-02T12:49:56.779Z,56.80
2018-05-02T12:51:00.067Z,57.60
2018-05-02T12:52:03.400Z,54.60
2018-05-02T12:53:05.922Z,54.60
2018-05-02T12:54:08.457Z,55.10
2018-05-02T12:55:10.984Z,56.00
2018-05-02T12:56:13.540Z,56.50
2018-05-02T12:57:16.091Z,56.50
2018-05-02T12:58:18.622Z,56.00
2018-05-02T12:59:21.144Z,56.50
2018-05-02T13:00:23.664Z,56.30
2018-05-02T13:01:26.194Z,56.90
2018-05-02T13:02:28.766Z,56.10
2018-05-02T13:03:31.280Z,54.60
2018-05-02T13:04:34.563Z,55.00
2018-05-02T13:05:37.884Z,55.40
2018-05-02T13:06:40.404Z,55.40
2018-05-02T13:07:43.696Z,57.20
2018-05-02T13:08:46.981Z,55.40
2018-05-02T13:09:50.298Z,56.60
2018-05-02T13:10:52.815Z,56.50
2018-05-02T13:11:55.335Z,56.20
2018-05-02T13:12:57.903Z,55.70
2018-05-02T13:14:00.422Z,56.10
2018-05-02T13:15:03.737Z,56.00
2018-05-02T13:16:06.288Z,56.00
2018-05-02T13:17:08.820Z,56.70
2018-05-02T13:18:11.349Z,55.70
2018-05-02T13:19:13.887Z,56.10
2018-05-02T13:20:16.403Z,55.50
2018-05-02T13:21:18.955Z,55.70
2018-05-02T13:22:21.525Z,55.80
2018-05-02T13:23:24.090Z,54.40
2018-05-02T13:24:26.843Z,55.00
2018-05-02T13:25:29.415Z,54.60
2018-05-02T13:26:31.959Z,55.00
2018-05-02T13:27:34.491Z,54.50
2018-05-02T13:28:37.027Z,55.00
2018-05-02T13:29:39.581Z,54.80
2018-05-02T13:30:42.103Z,54.60